LEPA/PMI METAR and TAF weather

Enter ICAO airport designator
Station Type Date Time Source
LEPA METAR 2023/02/05 23:00 UTC NOAA

LEPA 052300Z 16002KT CAVOK 06/04 Q1028 NOSIG


Station Type Date Time Source
LEPA Decoded METAR 2023/02/05 23:00 UTC NOAA

Palma De Mallorca / Son San Juan, Spain (LEPA) 39-33N 002-44E 8M
Feb 05, 2023 - 06:00 PM EST / 2023.02.05 2300 UTC
Wind: from the SSE (160 degrees) at 2 MPH (2 KT):0
Visibility: greater than 7 mile(s):0
Temperature: 42 F (6 C)
Dew Point: 39 F (4 C)
Relative Humidity: 86%
Pressure (altimeter): 30.36 in. Hg (1028 hPa)
ob: LEPA 052300Z 16002KT CAVOK 06/04 Q1028 NOSIG
cycle: 23

Station Type Date Time Source
LEPA TAF 2023/02/05 18:27 UTC NOAA

TAF LEPA 051700Z 0518/0618 06007KT 9999 FEW025 TX14/0613Z TN02/0606Z
BECMG 0518/0520 VRB04KT
BECMG 0608/0611 04013KT
TEMPO 0611/0616 04015G25KT
TEMPO 0604/0618 SCT025TCU PROB30
TEMPO 0609/0618 SHRA FEW025CB

Example: see airport list